Time;durP1;ratioP1;P1;durP2;ratioP2;P2;SDS_P1;SDS_P2;PMS_P1;PMS_P2;Temp;Humidity;BMP_temperature;BMP_pressure;BME280_temperature;BME280_humidity;BME280_pressure;Samples;Min_cycle;Max_cycle;Signal;HPM_P1;HPM_P2
2022/06/11 00:01:51;;;;;;;15.23;11.98;;;16.80;92.10;;;;;;5014446;28;20255;-90
2022/06/11 00:04:25;;;;;;;13.45;11.85;;;16.80;92.10;;;;;;5013983;28;20212;-91
2022/06/11 00:06:55;;;;;;;16.80;11.27;;;16.80;92.10;;;;;;5013898;28;20187;-90
2022/06/11 00:09:22;;;;;;;13.68;10.90;;;16.80;92.20;;;;;;5013971;28;20177;-90
2022/06/11 00:11:48;;;;;;;19.00;11.50;;;16.80;92.20;;;;;;5013921;28;20181;-90
2022/06/11 00:14:15;;;;;;;16.92;12.10;;;16.80;92.10;;;;;;5014069;28;20193;-90
2022/06/11 00:16:41;;;;;;;17.75;11.60;;;16.80;92.20;;;;;;5013710;28;20273;-90
2022/06/11 00:19:06;;;;;;;16.35;11.35;;;16.80;92.30;;;;;;5013945;28;20177;-90
2022/06/11 00:21:35;;;;;;;19.60;11.57;;;16.80;92.30;;;;;;5014215;28;20669;-90
2022/06/11 00:24:01;;;;;;;16.50;12.32;;;16.80;92.30;;;;;;5015265;28;20287;-90
2022/06/11 00:26:27;;;;;;;14.02;10.90;;;16.80;92.30;;;;;;5013994;28;20173;-90
2022/06/11 00:28:53;;;;;;;17.98;11.45;;;16.90;92.20;;;;;;5015222;28;20223;-90
2022/06/11 00:31:18;;;;;;;13.10;10.32;;;16.90;92.30;;;;;;5014116;28;20181;-90
2022/06/11 00:33:44;;;;;;;17.63;10.60;;;16.90;92.20;;;;;;5013905;28;20678;-90
2022/06/11 00:36:10;;;;;;;17.30;10.23;;;16.90;92.20;;;;;;5013927;28;20169;-90
2022/06/11 00:38:38;;;;;;;15.38;10.00;;;16.90;92.20;;;;;;5013693;28;20173;-90
2022/06/11 00:41:05;;;;;;;11.27;8.70;;;16.90;92.20;;;;;;5013628;28;20200;-90
2022/06/11 00:43:31;;;;;;;12.35;9.38;;;16.90;92.20;;;;;;5013554;28;20682;-90
2022/06/11 00:46:33;;;;;;;17.85;10.32;;;16.90;92.10;;;;;;5014791;28;20649;-90
2022/06/11 00:49:00;;;;;;;15.65;10.05;;;16.90;92.10;;;;;;5014831;28;20248;-90
2022/06/11 00:51:26;;;;;;;20.67;10.70;;;16.80;92.20;;;;;;5013814;28;20227;-90
2022/06/11 00:53:59;;;;;;;21.17;11.80;;;16.80;92.40;;;;;;5013974;28;20271;-90
2022/06/11 00:56:35;;;;;;;19.73;12.27;;;16.80;92.60;;;;;;5029842;28;20189;-91
2022/06/11 00:59:03;;;;;;;15.95;11.73;;;16.70;92.80;;;;;;5013462;28;20161;-90
2022/06/11 01:01:30;;;;;;;18.08;11.48;;;16.80;92.80;;;;;;5013606;28;20265;-90
2022/06/11 01:03:59;;;;;;;26.00;12.60;;;16.70;92.70;;;;;;5014562;28;20256;-90
2022/06/11 01:06:57;;;;;;;20.05;13.40;;;16.80;92.50;;;;;;5013686;28;20260;-90
2022/06/11 01:09:47;;;;;;;23.52;13.73;;;16.90;92.50;;;;;;5011546;28;20185;-90
2022/06/11 01:12:36;;;;;;;22.38;14.48;;;16.80;92.60;;;;;;5014499;28;20161;-91
2022/06/11 01:15:07;;;;;;;24.90;13.73;;;16.90;92.60;;;;;;5013460;28;20197;-90
2022/06/11 01:18:00;;;;;;;20.20;12.95;;;17.00;92.70;;;;;;5014531;28;20181;-90
2022/06/11 01:20:31;;;;;;;20.92;13.65;;;17.00;92.70;;;;;;5013643;28;20631;-90
2022/06/11 01:23:00;;;;;;;21.02;13.63;;;16.90;92.80;;;;;;5014252;28;20734;-90
2022/06/11 01:25:33;;;;;;;18.50;14.00;;;16.90;92.90;;;;;;5014742;28;20264;-90
2022/06/11 01:28:27;;;;;;;18.00;12.98;;;16.90;93.00;;;;;;5014579;28;20260;-90
2022/06/11 01:31:01;;;;;;;19.00;12.93;;;16.90;93.00;;;;;;5012332;28;20698;-91
2022/06/11 01:33:36;;;;;;;19.15;14.00;;;16.90;92.90;;;;;;5014180;28;20247;-90
2022/06/11 01:36:23;;;;;;;21.30;13.23;;;16.90;92.90;;;;;;5012966;28;20176;-90
2022/06/11 01:38:55;;;;;;;20.80;13.15;;;16.90;92.90;;;;;;5013931;28;20241;-90
2022/06/11 01:41:53;;;;;;;17.77;12.45;;;17.00;92.90;;;;;;5014041;28;20192;-91
2022/06/11 01:44:24;;;;;;;15.40;12.88;;;17.00;92.90;;;;;;5025829;28;20589;-90
2022/06/11 01:46:52;;;;;;;22.17;12.40;;;17.00;92.80;;;;;;5014138;28;20157;-90
2022/06/11 01:49:21;;;;;;;19.20;14.48;;;16.90;92.80;;;;;;5013811;28;20256;-91
2022/06/11 01:52:04;;;;;;;18.52;13.60;;;16.90;92.70;;;;;;5014041;28;20169;-91
2022/06/11 01:54:36;;;;;;;16.92;12.73;;;16.90;92.70;;;;;;5014046;28;20176;-90
2022/06/11 01:57:29;;;;;;;20.58;14.07;;;16.90;92.60;;;;;;5012538;28;20544;-90
2022/06/11 02:00:35;;;;;;;17.40;13.15;;;16.90;92.50;;;;;;5012742;28;20188;-90
2022/06/11 02:03:16;;;;;;;19.42;12.23;;;16.90;92.50;;;;;;5013937;28;20185;-90
2022/06/11 02:06:02;;;;;;;19.55;13.85;;;16.90;92.40;;;;;;5013980;28;20220;-91
2022/06/11 02:08:58;;;;;;;18.70;12.32;;;17.00;92.40;;;;;;5013356;28;20651;-91
2022/06/11 02:11:31;;;;;;;20.88;14.57;;;16.90;92.30;;;;;;5012521;28;20678;-90
2022/06/11 02:14:23;;;;;;;15.50;12.40;;;16.90;92.30;;;;;;5013820;28;20197;-91
2022/06/11 02:17:00;;;;;;;19.35;13.52;;;16.90;92.20;;;;;;5012519;28;20555;-91
2022/06/11 02:19:31;;;;;;;14.85;12.32;;;17.00;92.20;;;;;;5013621;28;20231;-90
2022/06/11 02:22:05;;;;;;;18.75;13.80;;;16.90;92.10;;;;;;5014122;28;20228;-91
2022/06/11 02:24:38;;;;;;;17.23;15.23;;;16.90;92.10;;;;;;5012734;28;20223;-90
2022/06/11 02:27:17;;;;;;;19.83;15.77;;;16.90;92.30;;;;;;5013000;28;20166;-91
2022/06/11 02:29:44;;;;;;;23.52;16.98;;;16.90;92.30;;;;;;5012344;28;20170;-90
2022/06/11 02:32:15;;;;;;;17.83;15.10;;;16.90;92.50;;;;;;5013383;28;20241;-91
2022/06/11 02:34:46;;;;;;;21.65;16.42;;;16.90;92.50;;;;;;5012515;28;20212;-90
2022/06/11 02:37:27;;;;;;;18.92;15.93;;;16.90;92.60;;;;;;5013940;28;20153;-90
2022/06/11 02:39:56;;;;;;;18.23;16.33;;;17.00;92.60;;;;;;5013503;28;20219;-90
2022/06/11 02:42:24;;;;;;;19.63;17.55;;;16.90;92.50;;;;;;5013773;28;20244;-90
2022/06/11 02:44:50;;;;;;;19.65;16.83;;;16.80;92.60;;;;;;5017498;28;20276;-90
2022/06/11 02:47:18;;;;;;;20.35;17.35;;;16.80;92.70;;;;;;5017421;28;20174;-90
2022/06/11 02:49:44;;;;;;;18.48;16.50;;;16.80;92.70;;;;;;5016211;28;20193;-90
2022/06/11 02:52:19;;;;;;;21.90;17.67;;;16.80;92.80;;;;;;5015842;28;20174;-90
2022/06/11 02:54:45;;;;;;;22.20;17.60;;;16.80;92.80;;;;;;5015805;28;20175;-90
2022/06/11 02:57:15;;;;;;;20.33;17.25;;;16.80;92.80;;;;;;5017302;28;20687;-90
2022/06/11 02:59:43;;;;;;;19.05;16.25;;;16.80;92.80;;;;;;5016873;28;20180;-90
2022/06/11 03:02:09;;;;;;;21.75;16.52;;;16.80;92.80;;;;;;5016932;28;20186;-90
2022/06/11 03:04:35;;;;;;;21.58;16.48;;;16.70;92.80;;;;;;5016680;28;20271;-90
2022/06/11 03:07:01;;;;;;;19.58;14.73;;;16.70;92.80;;;;;;5015630;28;20659;-90
2022/06/11 03:09:29;;;;;;;22.45;16.83;;;16.70;92.70;;;;;;5016566;28;20170;-91
2022/06/11 03:11:56;;;;;;;24.40;15.88;;;16.70;92.70;;;;;;5016726;28;20175;-90
2022/06/11 03:14:22;;;;;;;20.67;15.43;;;16.70;92.80;;;;;;5016637;28;20189;-90
2022/06/11 03:16:48;;;;;;;18.20;16.25;;;16.70;92.70;;;;;;5016676;28;20177;-90
2022/06/11 03:19:14;;;;;;;19.05;17.17;;;16.70;92.80;;;;;;5015494;28;20216;-90
2022/06/11 03:21:40;;;;;;;24.35;16.58;;;16.70;92.80;;;;;;5016463;28;20170;-90
2022/06/11 03:24:07;;;;;;;23.17;16.85;;;16.70;92.80;;;;;;5016379;28;20205;-90
2022/06/11 03:26:34;;;;;;;19.15;17.08;;;16.70;92.90;;;;;;5015191;28;20529;-91
2022/06/11 03:29:00;;;;;;;22.83;16.13;;;16.70;92.90;;;;;;5015110;28;20177;-91
2022/06/11 03:31:25;;;;;;;19.10;17.05;;;16.70;92.90;;;;;;5016370;28;20644;-91
2022/06/11 03:33:51;;;;;;;21.95;17.23;;;16.70;92.90;;;;;;5015235;28;20288;-90
2022/06/11 03:36:18;;;;;;;23.17;17.30;;;16.70;92.90;;;;;;5016377;28;20181;-91
2022/06/11 03:38:45;;;;;;;21.63;16.90;;;16.70;92.90;;;;;;5014712;28;20173;-90
2022/06/11 03:41:11;;;;;;;20.58;16.33;;;16.70;92.90;;;;;;5014940;28;20181;-90
2022/06/11 03:43:38;;;;;;;20.38;17.33;;;16.60;92.80;;;;;;5014920;28;20197;-90
2022/06/11 03:46:05;;;;;;;19.33;17.35;;;16.60;92.80;;;;;;5016048;28;20236;-91
2022/06/11 03:48:32;;;;;;;20.55;16.40;;;16.60;92.90;;;;;;5016328;28;20170;-90
2022/06/11 03:50:59;;;;;;;21.08;16.58;;;16.50;92.90;;;;;;5015884;28;20212;-90
2022/06/11 03:53:27;;;;;;;19.00;14.63;;;16.50;92.90;;;;;;5014187;28;20243;-90
2022/06/11 03:55:54;;;;;;;21.30;15.30;;;16.50;93.00;;;;;;5014340;28;20272;-90
2022/06/11 03:58:20;;;;;;;17.23;15.40;;;16.50;92.90;;;;;;5016254;28;20177;-90
2022/06/11 04:03:32;;;;;;;25.02;16.45;;;16.40;93.00;;;;;;5016314;28;20293;-90
2022/06/11 04:05:58;;;;;;;20.35;16.13;;;16.40;93.00;;;;;;5015853;28;20333;-90
2022/06/11 04:08:25;;;;;;;18.88;16.88;;;16.40;93.10;;;;;;5015788;28;20228;-90
2022/06/11 04:10:54;;;;;;;20.65;16.90;;;16.50;93.00;;;;;;5016046;28;20177;-90
2022/06/11 04:13:21;;;;;;;18.70;16.02;;;16.50;92.90;;;;;;5015446;28;20186;-91
2022/06/11 04:15:46;;;;;;;29.38;16.77;;;16.50;92.90;;;;;;5015407;28;20177;-90
2022/06/11 04:18:30;;;;;;;19.98;17.65;;;16.50;92.90;;;;;;5014259;28;20184;-90
2022/06/11 04:20:57;;;;;;;26.17;17.98;;;16.40;92.90;;;;;;5015404;28;20161;-89
2022/06/11 04:23:24;;;;;;;29.98;18.13;;;16.40;93.10;;;;;;5015384;28;20201;-90
2022/06/11 04:25:51;;;;;;;22.38;17.98;;;16.40;93.20;;;;;;5015222;28;20193;-90
2022/06/11 04:28:17;;;;;;;23.58;18.67;;;16.50;93.30;;;;;;5014072;28;20236;-90
2022/06/11 04:30:42;;;;;;;26.58;19.45;;;16.60;93.30;;;;;;5015311;28;20165;-90
2022/06/11 04:33:08;;;;;;;20.75;18.80;;;16.60;93.20;;;;;;5030904;28;20198;-90
2022/06/11 04:35:34;;;;;;;24.83;18.75;;;16.60;93.20;;;;;;5015099;28;20208;-90
2022/06/11 04:37:59;;;;;;;23.65;18.50;;;16.70;93.20;;;;;;5015084;28;20177;-90
2022/06/11 04:40:25;;;;;;;23.98;19.27;;;16.70;93.10;;;;;;5015442;28;20178;-90
2022/06/11 04:42:51;;;;;;;22.65;18.63;;;16.80;93.00;;;;;;5013764;28;20591;-89
2022/06/11 04:45:18;;;;;;;20.25;18.20;;;16.80;93.10;;;;;;5014826;28;20224;-89
2022/06/11 04:47:45;;;;;;;23.88;19.50;;;16.80;93.00;;;;;;5014847;28;20620;-90
2022/06/11 04:50:15;;;;;;;24.88;20.73;;;16.90;93.10;;;;;;5014964;28;20189;-90
2022/06/11 04:52:41;;;;;;;21.85;19.70;;;16.90;93.10;;;;;;5015242;28;20281;-90
2022/06/11 04:55:07;;;;;;;25.60;21.00;;;17.00;93.10;;;;;;5014961;28;20671;-90
2022/06/11 04:57:33;;;;;;;26.20;20.70;;;17.10;93.20;;;;;;5013396;28;20181;-90
2022/06/11 04:59:58;;;;;;;22.40;18.60;;;17.10;93.20;;;;;;5013624;28;20197;-90
2022/06/11 05:02:27;;;;;;;24.60;19.83;;;17.20;93.20;;;;;;5014694;28;20228;-90
2022/06/11 05:04:53;;;;;;;26.23;20.70;;;17.20;93.10;;;;;;5013991;28;20224;-90
2022/06/11 05:07:20;;;;;;;25.10;19.05;;;17.30;93.00;;;;;;5014433;28;20169;-90
2022/06/11 05:09:46;;;;;;;25.70;19.98;;;17.30;93.00;;;;;;5013626;28;20173;-90
2022/06/11 05:12:13;;;;;;;28.75;20.67;;;17.40;92.80;;;;;;5014620;28;20202;-90
2022/06/11 05:14:39;;;;;;;25.70;19.02;;;17.50;92.70;;;;;;5013126;28;20264;-90
2022/06/11 05:17:05;;;;;;;27.25;20.77;;;17.60;92.60;;;;;;5014424;28;20256;-90
2022/06/11 05:19:31;;;;;;;19.90;17.50;;;17.70;92.50;;;;;;5014525;28;20180;-90
2022/06/11 05:21:57;;;;;;;27.17;17.63;;;17.70;91.50;;;;;;5014726;28;20178;-90
2022/06/11 05:24:22;;;;;;;21.05;17.02;;;17.70;90.90;;;;;;5013111;28;20239;-90
2022/06/11 05:27:11;;;;;;;22.38;16.73;;;17.80;90.30;;;;;;5014060;28;20177;-90
2022/06/11 05:30:06;;;;;;;22.25;16.83;;;17.90;90.20;;;;;;5014307;28;20173;-90
2022/06/11 05:32:33;;;;;;;25.98;16.65;;;18.00;90.00;;;;;;5013884;28;20570;-90
2022/06/11 05:35:00;;;;;;;27.88;17.73;;;18.00;89.60;;;;;;5013285;28;20208;-90
2022/06/11 05:37:27;;;;;;;20.70;15.93;;;18.00;89.60;;;;;;5014022;28;20211;-90
2022/06/11 05:39:53;;;;;;;17.35;13.40;;;18.20;89.60;;;;;;5014179;28;20177;-90
2022/06/11 05:42:22;;;;;;;16.80;11.77;;;18.20;88.60;;;;;;5012909;28;20181;-89
2022/06/11 05:44:48;;;;;;;13.45;10.60;;;18.20;87.70;;;;;;5013848;28;20189;-90
2022/06/11 05:47:19;;;;;;;17.88;11.70;;;18.30;87.20;;;;;;5012678;28;20612;-90
2022/06/11 05:49:49;;;;;;;17.67;10.63;;;18.30;86.70;;;;;;5012740;28;20157;-90
2022/06/11 05:52:22;;;;;;;13.13;9.48;;;18.40;86.70;;;;;;5014128;28;20185;-90
2022/06/11 05:54:49;;;;;;;13.27;9.30;;;18.30;86.40;;;;;;5012960;28;20554;-89
2022/06/11 05:57:20;;;;;;;13.15;9.65;;;18.10;85.90;;;;;;5014265;28;20624;-90
2022/06/11 05:59:50;;;;;;;11.55;8.13;;;18.10;86.60;;;;;;5012712;28;20165;-90
2022/06/11 06:02:20;;;;;;;13.18;7.22;;;18.10;85.30;;;;;;5014073;28;20161;-92
2022/06/11 06:04:45;;;;;;;13.38;6.90;;;18.00;84.80;;;;;;5029173;28;20704;-89
2022/06/11 06:07:11;;;;;;;15.13;6.57;;;17.90;84.70;;;;;;5028791;28;20203;-90
2022/06/11 06:09:37;;;;;;;15.13;6.43;;;18.00;85.30;;;;;;5013676;28;20174;-89
2022/06/11 06:12:04;;;;;;;14.05;5.57;;;17.90;85.30;;;;;;5013597;28;20288;-89
2022/06/11 06:14:30;;;;;;;12.63;6.78;;;17.90;85.30;;;;;;5013754;28;20197;-90
2022/06/11 06:16:56;;;;;;;11.13;6.63;;;18.00;85.90;;;;;;5015174;28;20181;-90
2022/06/11 06:19:21;;;;;;;13.85;6.15;;;17.90;85.50;;;;;;5017878;28;20709;-91
2022/06/11 06:21:47;;;;;;;14.30;6.43;;;17.80;84.90;;;;;;5016035;28;20269;-92
2022/06/11 06:24:13;;;;;;;12.85;6.10;;;17.90;85.20;;;;;;5015933;28;20228;-92
2022/06/11 06:26:39;;;;;;;12.20;6.82;;;18.00;85.00;;;;;;5016320;28;20185;-91
2022/06/11 06:29:05;;;;;;;11.73;6.35;;;18.00;85.40;;;;;;5016130;28;20571;-92
2022/06/11 06:31:31;;;;;;;13.68;7.30;;;18.10;86.00;;;;;;5016063;28;20181;-92
2022/06/11 06:34:00;;;;;;;14.40;6.53;;;18.00;85.20;;;;;;5015784;28;20197;-91
2022/06/11 06:36:27;;;;;;;16.42;7.00;;;18.10;85.80;;;;;;5033071;28;20327;-91
2022/06/11 06:38:53;;;;;;;16.05;6.32;;;18.20;85.50;;;;;;5015896;28;20205;-91
2022/06/11 06:41:19;;;;;;;15.40;7.03;;;18.20;84.80;;;;;;5015732;28;20170;-90
2022/06/11 06:43:45;;;;;;;13.15;5.78;;;18.20;84.80;;;;;;5015678;28;20200;-90
2022/06/11 06:46:11;;;;;;;15.10;6.25;;;18.20;85.10;;;;;;5031976;28;20205;-91
2022/06/11 06:48:37;;;;;;;12.27;5.93;;;18.30;85.50;;;;;;5015840;28;20173;-90
2022/06/11 06:51:03;;;;;;;8.80;5.13;;;18.20;85.20;;;;;;5015572;28;20169;-91
2022/06/11 06:53:29;;;;;;;12.52;5.43;;;18.20;82.90;;;;;;5015955;28;20197;-93
2022/06/11 06:55:55;;;;;;;9.57;5.22;;;18.20;84.30;;;;;;5018504;28;20341;-86
2022/06/11 06:58:21;;;;;;;12.98;4.47;;;18.30;84.10;;;;;;5016730;28;20175;-87
2022/06/11 07:00:47;;;;;;;13.73;4.70;;;18.30;82.60;;;;;;5015331;28;20674;-87
2022/06/11 07:03:13;;;;;;;12.15;4.93;;;18.40;82.60;;;;;;5015195;28;20194;-89
2022/06/11 07:05:40;;;;;;;14.93;4.30;;;18.50;83.10;;;;;;5015139;28;20635;-87
2022/06/11 07:08:06;;;;;;;12.05;4.40;;;18.40;81.30;;;;;;5015091;28;20229;-87
2022/06/11 07:10:33;;;;;;;12.02;4.35;;;18.60;81.00;;;;;;5015498;28;20264;-89
2022/06/11 07:13:00;;;;;;;11.57;4.75;;;18.60;81.00;;;;;;5015091;28;20209;-87
2022/06/11 07:15:26;;;;;;;10.15;3.85;;;18.60;80.10;;;;;;5015203;28;20174;-87
2022/06/11 07:18:16;;;;;;;12.77;4.53;;;18.70;81.00;;;;;;5016313;28;20213;-89
2022/06/11 07:20:42;;;;;;;14.65;4.22;;;18.70;80.10;;;;;;5031579;28;20175;-89
2022/06/11 07:23:31;;;;;;;14.75;4.65;;;18.60;79.00;;;;;;5014959;28;20193;-89
2022/06/11 07:25:59;;;;;;;14.07;4.90;;;18.80;80.00;;;;;;5016011;28;20193;-89
2022/06/11 07:28:36;;;;;;;12.63;4.53;;;18.90;80.10;;;;;;5013947;28;20264;-89
2022/06/11 07:31:02;;;;;;;9.80;4.20;;;18.90;79.30;;;;;;5014896;28;20252;-89
2022/06/11 07:33:28;;;;;;;14.50;4.47;;;18.80;77.30;;;;;;5016168;28;20201;-88
2022/06/11 07:35:55;;;;;;;10.80;4.28;;;18.90;78.60;;;;;;5014815;28;20182;-88
2022/06/11 07:38:21;;;;;;;13.50;4.28;;;18.90;77.80;;;;;;5014657;28;20186;-89
2022/06/11 07:40:47;;;;;;;12.73;4.07;;;19.00;79.20;;;;;;5015761;28;20671;-88
2022/06/11 07:43:13;;;;;;;13.55;3.75;;;19.20;78.60;;;;;;5014591;28;20264;-90
2022/06/11 07:45:41;;;;;;;12.60;4.00;;;19.10;77.60;;;;;;5014489;28;20240;-90
2022/06/11 07:48:07;;;;;;;11.50;3.70;;;19.30;78.60;;;;;;5015686;28;20593;-88
2022/06/11 07:50:39;;;;;;;12.88;4.18;;;19.60;78.40;;;;;;5014383;28;20550;-88
2022/06/11 07:53:06;;;;;;;13.55;4.55;;;19.50;76.50;;;;;;5014331;28;20619;-89
2022/06/11 07:55:34;;;;;;;12.63;4.57;;;19.50;77.90;;;;;;5014222;28;20193;-89
2022/06/11 07:58:00;;;;;;;18.75;4.65;;;19.60;77.80;;;;;;5015531;28;20535;-88
2022/06/11 08:00:30;;;;;;;12.68;4.38;;;19.30;78.70;;;;;;5015842;28;20169;-90
2022/06/11 08:02:56;;;;;;;12.45;5.40;;;19.20;79.20;;;;;;5014964;28;20198;-88
2022/06/11 08:05:22;;;;;;;11.25;6.18;;;19.30;79.30;;;;;;5030615;28;20247;-88
2022/06/11 08:07:51;;;;;;;15.13;7.22;;;19.20;77.70;;;;;;5014430;28;20640;-88
2022/06/11 08:10:17;;;;;;;10.82;5.65;;;19.20;78.20;;;;;;5014124;28;20268;-88
2022/06/11 08:12:42;;;;;;;14.35;6.40;;;19.50;78.00;;;;;;5014116;28;20193;-90
2022/06/11 08:15:10;;;;;;;13.15;5.90;;;19.70;77.00;;;;;;5014059;28;20212;-90
2022/06/11 08:17:35;;;;;;;11.57;5.28;;;19.90;77.20;;;;;;5015488;28;20651;-89
2022/06/11 08:20:03;;;;;;;12.73;5.35;;;20.10;76.90;;;;;;5014060;28;20177;-89
2022/06/11 08:22:30;;;;;;;8.57;6.82;;;20.30;77.30;;;;;;5014083;28;20208;-89
2022/06/11 08:24:56;;;;;;;11.43;6.43;;;20.20;74.30;;;;;;5015301;28;20651;-88
2022/06/11 08:27:22;;;;;;;8.77;5.57;;;20.30;74.00;;;;;;5014031;28;20177;-89
2022/06/11 08:29:47;;;;;;;14.65;5.93;;;20.50;75.30;;;;;;5014114;28;20177;-89
2022/06/11 08:32:13;;;;;;;8.27;4.43;;;20.40;73.60;;;;;;5014125;28;20177;-89
2022/06/11 08:34:41;;;;;;;11.45;5.30;;;20.20;70.60;;;;;;5030230;28;20181;-90
2022/06/11 08:37:08;;;;;;;9.60;5.88;;;20.20;70.70;;;;;;5014259;28;20204;-88
2022/06/11 08:39:34;;;;;;;10.60;5.40;;;20.40;71.50;;;;;;5014725;28;20517;-89
2022/06/11 08:42:01;;;;;;;14.30;5.50;;;20.40;70.50;;;;;;5014630;28;20240;-89
2022/06/11 08:44:31;;;;;;;12.68;4.60;;;20.70;71.50;;;;;;5013237;28;20216;-89
2022/06/11 08:47:01;;;;;;;8.75;4.05;;;20.50;69.90;;;;;;5013418;28;20170;-90
2022/06/11 08:49:35;;;;;;;8.75;4.88;;;20.50;71.30;;;;;;5013622;28;20616;-89
2022/06/11 08:52:19;;;;;;;8.48;3.80;;;20.40;72.70;;;;;;5013322;28;20257;-87
2022/06/11 08:54:47;;;;;;;9.90;3.63;;;19.70;70.60;;;;;;5030031;28;20161;-87
2022/06/11 08:57:26;;;;;;;6.97;3.00;;;19.60;71.40;;;;;;5014670;28;20252;-88
2022/06/11 09:00:10;;;;;;;8.45;3.72;;;20.00;69.00;;;;;;5013137;28;20170;-88
2022/06/11 09:03:09;;;;;;;8.40;2.78;;;20.40;68.80;;;;;;5014253;28;20243;-88
2022/06/11 09:06:03;;;;;;;6.13;3.30;;;20.60;66.00;;;;;;5029438;28;20189;-88
2022/06/11 09:08:41;;;;;;;6.53;2.75;;;20.90;65.30;;;;;;5014125;28;20284;-87
2022/06/11 09:11:50;;;;;;;11.38;5.22;;;21.10;63.60;;;;;;5029407;28;20168;-87
2022/06/11 09:14:28;;;;;;;4.15;2.47;;;21.20;65.40;;;;;;5012753;28;20596;-87
2022/06/11 09:17:21;;;;;;;4.40;2.25;;;20.80;65.30;;;;;;5013960;28;20200;-85
2022/06/11 09:20:06;;;;;;;6.53;2.05;;;20.40;64.60;;;;;;5014012;28;20158;-86
2022/06/11 09:22:56;;;;;;;7.95;4.30;;;20.70;64.60;;;;;;5012706;28;20205;-87
2022/06/11 09:25:41;;;;;;;6.03;2.67;;;21.20;63.00;;;;;;5012726;28;20190;-87
2022/06/11 09:28:39;;;;;;;7.60;3.47;;;20.90;62.60;;;;;;5012615;28;20188;-87
2022/06/11 09:31:10;;;;;;;6.15;2.42;;;20.90;62.00;;;;;;5012680;28;20201;-87
2022/06/11 09:33:56;;;;;;;5.88;2.08;;;20.60;62.20;;;;;;5013920;28;20189;-87
2022/06/11 09:36:29;;;;;;;6.40;2.25;;;20.50;62.90;;;;;;5012360;28;20173;-86
2022/06/11 09:39:12;;;;;;;9.52;3.05;;;20.80;60.80;;;;;;5012821;28;20173;-87
2022/06/11 09:41:49;;;;;;;6.78;2.72;;;21.00;61.40;;;;;;5013940;28;20160;-87
2022/06/11 09:44:39;;;;;;;5.07;2.42;;;20.80;60.40;;;;;;5013166;28;20209;-87
2022/06/11 09:47:28;;;;;;;9.05;3.33;;;20.70;61.90;;;;;;5012493;28;20177;-87
2022/06/11 09:50:22;;;;;;;6.53;2.75;;;21.10;61.10;;;;;;5013698;28;20196;-87
2022/06/11 09:53:06;;;;;;;6.28;2.90;;;21.30;62.70;;;;;;4995924;28;20280;-87
2022/06/11 09:55:43;;;;;;;9.10;4.38;;;21.50;60.30;;;;;;5013198;28;20201;-87
2022/06/11 09:58:20;;;;;;;9.00;3.13;;;21.50;59.50;;;;;;5013500;28;20157;-87
2022/06/11 10:00:54;;;;;;;7.95;3.50;;;21.20;62.30;;;;;;5012821;28;20180;-88
2022/06/11 10:03:36;;;;;;;11.32;3.40;;;20.50;61.60;;;;;;5015916;28;20208;-87
2022/06/11 10:06:10;;;;;;;9.77;3.38;;;20.90;61.70;;;;;;5014353;28;20240;-87
2022/06/11 10:09:08;;;;;;;10.38;3.20;;;21.20;59.70;;;;;;5012926;28;20212;-87
2022/06/11 10:11:44;;;;;;;6.45;2.80;;;21.70;61.90;;;;;;5012282;28;20170;-87
2022/06/11 10:14:29;;;;;;;9.90;3.25;;;21.80;62.40;;;;;;5013487;28;20208;-87
2022/06/11 10:17:16;;;;;;;8.65;3.08;;;21.30;59.60;;;;;;5015231;28;20158;-87
2022/06/11 10:20:02;;;;;;;12.70;3.75;;;21.30;63.10;;;;;;5013489;28;20220;-87
2022/06/11 10:22:38;;;;;;;9.15;3.38;;;21.50;63.30;;;;;;5013108;28;20675;-87
2022/06/11 10:25:03;;;;;;;13.80;3.22;;;21.30;62.30;;;;;;5014460;28;20197;-87
2022/06/11 10:27:33;;;;;;;15.95;3.40;;;21.70;61.70;;;;;;5013549;28;20260;-87
2022/06/11 10:30:05;;;;;;;8.75;3.60;;;21.80;62.30;;;;;;5013261;28;20184;-87
2022/06/11 10:32:38;;;;;;;15.32;3.80;;;21.90;61.80;;;;;;5012649;28;20206;-87
2022/06/11 10:35:16;;;;;;;9.48;2.80;;;22.40;60.30;;;;;;5012701;28;20180;-87
2022/06/11 10:37:57;;;;;;;14.02;3.97;;;22.00;60.20;;;;;;5015294;28;20161;-87
2022/06/11 10:40:35;;;;;;;13.07;3.70;;;21.80;64.00;;;;;;5012652;28;20201;-87
2022/06/11 10:43:10;;;;;;;15.50;4.22;;;21.30;63.10;;;;;;5011822;28;20251;-85
2022/06/11 10:45:35;;;;;;;14.73;3.70;;;21.60;63.50;;;;;;5013213;28;20268;-86
2022/06/11 10:48:02;;;;;;;12.18;3.90;;;22.20;62.90;;;;;;5013267;28;20189;-86
2022/06/11 10:50:36;;;;;;;14.75;4.28;;;22.70;62.40;;;;;;5028384;28;20178;-85
2022/06/11 10:53:29;;;;;;;15.93;4.13;;;22.30;62.50;;;;;;5012858;28;20212;-86
2022/06/11 10:56:20;;;;;;;13.27;3.78;;;21.90;63.50;;;;;;5011516;28;20687;-86
2022/06/11 10:59:09;;;;;;;17.40;3.67;;;22.00;62.30;;;;;;5011686;28;20173;-85
2022/06/11 11:01:41;;;;;;;18.15;3.75;;;22.30;62.50;;;;;;5011732;28;20177;-86
2022/06/11 11:04:26;;;;;;;15.57;3.50;;;22.40;63.60;;;;;;5013082;28;20231;-86
2022/06/11 11:07:11;;;;;;;15.02;3.83;;;22.70;63.20;;;;;;5015118;28;20256;-86
2022/06/11 11:09:36;;;;;;;14.25;3.55;;;22.40;62.50;;;;;;5016441;28;20170;-85
2022/06/11 11:12:07;;;;;;;11.82;3.70;;;22.60;61.50;;;;;;5016107;28;20544;-86
2022/06/11 11:14:39;;;;;;;14.15;4.57;;;22.20;62.00;;;;;;5014930;28;20189;-86
2022/06/11 11:17:14;;;;;;;10.15;3.75;;;22.50;64.80;;;;;;5016180;28;20180;-86
2022/06/11 11:19:43;;;;;;;16.33;3.97;;;22.30;63.50;;;;;;5016485;28;20187;-86
2022/06/11 11:22:18;;;;;;;13.80;3.80;;;22.40;63.50;;;;;;5015042;28;20181;-86
2022/06/11 11:24:48;;;;;;;15.98;4.55;;;22.70;63.30;;;;;;5016244;28;20243;-86
2022/06/11 11:27:22;;;;;;;18.73;4.10;;;21.80;62.20;;;;;;5016225;28;20204;-85
2022/06/11 11:29:59;;;;;;;13.68;4.68;;;21.80;63.30;;;;;;5016106;28;20162;-86
2022/06/11 11:32:27;;;;;;;11.05;3.72;;;22.40;65.10;;;;;;5014737;28;20193;-86
2022/06/11 11:34:53;;;;;;;17.80;5.28;;;22.80;62.00;;;;;;5015956;28;20232;-86
2022/06/11 11:37:32;;;;;;;13.20;3.80;;;23.00;60.90;;;;;;5016516;28;20521;-86
2022/06/11 11:40:02;;;;;;;21.30;5.10;;;22.90;60.70;;;;;;5014641;28;20169;-86
2022/06/11 11:42:39;;;;;;;18.23;4.82;;;22.70;60.40;;;;;;5014579;28;20197;-85
2022/06/11 11:45:27;;;;;;;19.05;4.82;;;23.00;59.20;;;;;;5015553;28;20193;-85
2022/06/11 11:48:03;;;;;;;17.85;4.28;;;22.10;62.60;;;;;;5015860;28;20170;-85
2022/06/11 11:50:33;;;;;;;14.52;4.05;;;22.30;62.20;;;;;;5014304;28;20168;-85
2022/06/11 11:53:28;;;;;;;14.60;3.42;;;22.40;64.10;;;;;;5014191;28;20782;-86
2022/06/11 11:56:04;;;;;;;15.48;4.75;;;22.70;62.40;;;;;;4997434;28;20201;-86
2022/06/11 11:58:39;;;;;;;12.63;3.88;;;22.70;62.90;;;;;;5014719;28;20263;-86
2022/06/11 12:01:14;;;;;;;18.10;4.70;;;22.80;61.10;;;;;;5015530;28;20545;-86
2022/06/11 12:03:47;;;;;;;17.20;4.18;;;23.10;59.40;;;;;;5015669;28;20276;-86
2022/06/11 12:06:17;;;;;;;17.48;4.03;;;23.50;59.70;;;;;;5014135;28;20192;-86
2022/06/11 12:08:53;;;;;;;17.60;4.03;;;23.60;60.50;;;;;;5030691;28;20223;-87
2022/06/11 12:11:25;;;;;;;15.57;3.75;;;23.30;59.90;;;;;;5015284;28;20659;-88
2022/06/11 12:13:54;;;;;;;22.00;5.00;;;23.20;60.80;;;;;;5014132;28;20284;-86
2022/06/11 12:16:35;;;;;;;19.80;4.63;;;22.80;60.10;;;;;;5013485;28;20208;-86
2022/06/11 12:19:24;;;;;;;18.70;4.22;;;22.30;60.20;;;;;;5015528;28;20157;-86
2022/06/11 12:22:15;;;;;;;22.48;4.60;;;22.90;60.10;;;;;;5014598;28;20193;-86
2022/06/11 12:24:44;;;;;;;18.08;4.30;;;23.50;58.30;;;;;;5013867;28;20626;-86
2022/06/11 12:27:29;;;;;;;15.43;3.72;;;23.90;56.10;;;;;;5014869;28;20181;-86
2022/06/11 12:30:01;;;;;;;18.95;4.70;;;23.80;55.10;;;;;;5013965;28;20556;-86
2022/06/11 12:32:29;;;;;;;12.95;3.55;;;23.90;56.70;;;;;;5013572;28;20640;-86
2022/06/11 12:34:58;;;;;;;19.58;4.47;;;23.60;55.10;;;;;;5013569;28;20204;-86
2022/06/11 12:37:49;;;;;;;12.75;4.43;;;24.00;55.90;;;;;;5014682;28;20590;-86
2022/06/11 12:40:39;;;;;;;16.33;3.95;;;24.20;57.60;;;;;;5014713;28;20632;-86
2022/06/11 12:43:24;;;;;;;16.35;4.50;;;24.70;53.20;;;;;;5014839;28;20205;-86
2022/06/11 12:46:07;;;;;;;18.70;4.18;;;24.90;52.50;;;;;;5014848;28;20181;-86
2022/06/11 12:48:54;;;;;;;17.98;4.53;;;23.60;53.90;;;;;;5014465;28;20204;-86
2022/06/11 12:51:53;;;;;;;15.65;5.07;;;23.90;54.60;;;;;;5013245;28;20173;-87
2022/06/11 12:54:26;;;;;;;16.67;3.97;;;23.30;56.40;;;;;;5014604;28;20193;-87
2022/06/11 12:57:02;;;;;;;19.70;5.15;;;23.80;57.00;;;;;;5013131;28;20655;-86
2022/06/11 12:59:47;;;;;;;21.35;4.63;;;24.40;57.50;;;;;;5014224;28;20192;-86
2022/06/11 13:02:17;;;;;;;19.58;4.88;;;24.50;57.10;;;;;;5013789;28;20172;-87
2022/06/11 13:05:03;;;;;;;18.20;4.18;;;24.80;54.10;;;;;;5013084;28;20208;-87